sensor_id;sensor_type;location;lat;lon;timestamp;P1;durP1;ratioP1;P2;durP2;ratioP2
2944;SDS011;1482;51.398;7.128;2022-08-03T00:01:31;2.33;;;2.13;;
2944;SDS011;1482;51.398;7.128;2022-08-03T00:03:57;4.73;;;3.03;;
2944;SDS011;1482;51.398;7.128;2022-08-03T00:06:23;2.77;;;2.57;;
2944;SDS011;1482;51.398;7.128;2022-08-03T00:08:49;2.83;;;2.63;;
2944;SDS011;1482;51.398;7.128;2022-08-03T00:11:14;5.40;;;3.40;;
2944;SDS011;1482;51.398;7.128;2022-08-03T00:13:40;3.80;;;2.27;;
2944;SDS011;1482;51.398;7.128;2022-08-03T00:16:05;2.83;;;1.97;;
2944;SDS011;1482;51.398;7.128;2022-08-03T00:18:31;4.47;;;2.37;;
2944;SDS011;1482;51.398;7.128;2022-08-03T00:20:57;4.53;;;2.30;;
2944;SDS011;1482;51.398;7.128;2022-08-03T00:23:22;9.23;;;2.23;;
2944;SDS011;1482;51.398;7.128;2022-08-03T00:25:48;3.37;;;2.50;;
2944;SDS011;1482;51.398;7.128;2022-08-03T00:28:13;4.37;;;2.10;;
2944;SDS011;1482;51.398;7.128;2022-08-03T00:30:39;6.20;;;2.17;;
2944;SDS011;1482;51.398;7.128;2022-08-03T00:33:05;2.83;;;1.90;;
2944;SDS011;1482;51.398;7.128;2022-08-03T00:35:30;5.10;;;2.70;;
2944;SDS011;1482;51.398;7.128;2022-08-03T00:37:56;3.23;;;2.27;;
2944;SDS011;1482;51.398;7.128;2022-08-03T00:40:22;3.70;;;2.20;;
2944;SDS011;1482;51.398;7.128;2022-08-03T00:42:52;8.93;;;2.30;;
2944;SDS011;1482;51.398;7.128;2022-08-03T00:45:23;2.80;;;2.10;;
2944;SDS011;1482;51.398;7.128;2022-08-03T00:47:51;4.30;;;2.40;;
2944;SDS011;1482;51.398;7.128;2022-08-03T00:50:17;6.20;;;2.63;;
2944;SDS011;1482;51.398;7.128;2022-08-03T00:52:44;6.00;;;2.13;;
2944;SDS011;1482;51.398;7.128;2022-08-03T00:55:11;4.23;;;2.27;;
2944;SDS011;1482;51.398;7.128;2022-08-03T00:57:37;4.10;;;2.73;;
2944;SDS011;1482;51.398;7.128;2022-08-03T01:00:04;9.00;;;3.57;;
2944;SDS011;1482;51.398;7.128;2022-08-03T01:02:31;6.00;;;2.60;;
2944;SDS011;1482;51.398;7.128;2022-08-03T01:04:57;3.10;;;2.70;;
2944;SDS011;1482;51.398;7.128;2022-08-03T01:15:42;2.90;;;2.47;;
2944;SDS011;1482;51.398;7.128;2022-08-03T01:18:19;2.53;;;2.30;;
2944;SDS011;1482;51.398;7.128;2022-08-03T01:20:50;5.03;;;2.73;;
2944;SDS011;1482;51.398;7.128;2022-08-03T01:26:46;7.80;;;2.60;;
2944;SDS011;1482;51.398;7.128;2022-08-03T01:32:24;2.77;;;2.57;;
2944;SDS011;1482;51.398;7.128;2022-08-03T01:35:00;7.10;;;2.20;;
2944;SDS011;1482;51.398;7.128;2022-08-03T01:37:37;4.13;;;2.50;;
2944;SDS011;1482;51.398;7.128;2022-08-03T01:40:11;5.10;;;2.80;;
2944;SDS011;1482;51.398;7.128;2022-08-03T01:42:39;3.57;;;2.87;;
2944;SDS011;1482;51.398;7.128;2022-08-03T01:45:07;16.60;;;3.43;;
2944;SDS011;1482;51.398;7.128;2022-08-03T01:47:35;2.73;;;2.47;;
2944;SDS011;1482;51.398;7.128;2022-08-03T01:50:03;3.27;;;2.60;;
2944;SDS011;1482;51.398;7.128;2022-08-03T01:52:30;5.43;;;2.87;;
2944;SDS011;1482;51.398;7.128;2022-08-03T01:54:57;5.43;;;3.30;;
2944;SDS011;1482;51.398;7.128;2022-08-03T01:57:25;6.63;;;3.10;;
2944;SDS011;1482;51.398;7.128;2022-08-03T01:59:53;3.97;;;3.07;;
2944;SDS011;1482;51.398;7.128;2022-08-03T02:02:20;4.97;;;2.97;;
2944;SDS011;1482;51.398;7.128;2022-08-03T02:04:48;7.83;;;2.80;;
2944;SDS011;1482;51.398;7.128;2022-08-03T02:07:16;5.93;;;3.03;;
2944;SDS011;1482;51.398;7.128;2022-08-03T02:09:43;2.83;;;2.50;;
2944;SDS011;1482;51.398;7.128;2022-08-03T02:12:13;5.37;;;3.27;;
2944;SDS011;1482;51.398;7.128;2022-08-03T02:14:40;6.63;;;3.93;;
2944;SDS011;1482;51.398;7.128;2022-08-03T02:17:08;3.90;;;2.67;;
2944;SDS011;1482;51.398;7.128;2022-08-03T02:19:35;3.57;;;2.97;;
2944;SDS011;1482;51.398;7.128;2022-08-03T02:22:02;3.90;;;3.10;;
2944;SDS011;1482;51.398;7.128;2022-08-03T02:24:29;3.00;;;2.70;;
2944;SDS011;1482;51.398;7.128;2022-08-03T02:26:56;3.23;;;3.03;;
2944;SDS011;1482;51.398;7.128;2022-08-03T02:29:24;2.77;;;2.33;;
2944;SDS011;1482;51.398;7.128;2022-08-03T02:31:53;5.93;;;3.70;;
2944;SDS011;1482;51.398;7.128;2022-08-03T02:34:23;2.90;;;2.67;;
2944;SDS011;1482;51.398;7.128;2022-08-03T02:36:53;5.00;;;2.67;;
2944;SDS011;1482;51.398;7.128;2022-08-03T02:39:24;3.20;;;2.70;;
2944;SDS011;1482;51.398;7.128;2022-08-03T02:41:51;4.30;;;2.97;;
2944;SDS011;1482;51.398;7.128;2022-08-03T02:44:26;4.40;;;3.40;;
2944;SDS011;1482;51.398;7.128;2022-08-03T02:46:56;3.93;;;2.93;;
2944;SDS011;1482;51.398;7.128;2022-08-03T02:49:26;5.27;;;3.00;;
2944;SDS011;1482;51.398;7.128;2022-08-03T02:51:52;5.70;;;3.30;;
2944;SDS011;1482;51.398;7.128;2022-08-03T02:54:21;4.50;;;3.10;;
2944;SDS011;1482;51.398;7.128;2022-08-03T02:56:48;3.87;;;2.90;;
2944;SDS011;1482;51.398;7.128;2022-08-03T02:59:16;7.20;;;3.40;;
2944;SDS011;1482;51.398;7.128;2022-08-03T03:01:43;3.43;;;2.73;;
2944;SDS011;1482;51.398;7.128;2022-08-03T03:04:10;12.47;;;3.63;;
2944;SDS011;1482;51.398;7.128;2022-08-03T03:06:37;7.10;;;3.13;;
2944;SDS011;1482;51.398;7.128;2022-08-03T03:09:03;4.47;;;2.93;;
2944;SDS011;1482;51.398;7.128;2022-08-03T03:11:30;2.60;;;2.40;;
2944;SDS011;1482;51.398;7.128;2022-08-03T03:13:56;6.03;;;3.17;;
2944;SDS011;1482;51.398;7.128;2022-08-03T03:16:22;3.63;;;2.93;;
2944;SDS011;1482;51.398;7.128;2022-08-03T03:18:49;3.50;;;2.50;;
2944;SDS011;1482;51.398;7.128;2022-08-03T03:21:16;3.67;;;2.90;;
2944;SDS011;1482;51.398;7.128;2022-08-03T03:23:43;4.03;;;3.00;;
2944;SDS011;1482;51.398;7.128;2022-08-03T03:26:10;3.73;;;3.37;;
2944;SDS011;1482;51.398;7.128;2022-08-03T03:28:38;2.40;;;2.20;;
2944;SDS011;1482;51.398;7.128;2022-08-03T03:31:05;7.73;;;3.00;;
2944;SDS011;1482;51.398;7.128;2022-08-03T03:33:32;5.60;;;3.60;;
2944;SDS011;1482;51.398;7.128;2022-08-03T03:35:59;6.90;;;3.30;;
2944;SDS011;1482;51.398;7.128;2022-08-03T03:38:25;4.07;;;3.07;;
2944;SDS011;1482;51.398;7.128;2022-08-03T03:40:51;8.23;;;2.93;;
2944;SDS011;1482;51.398;7.128;2022-08-03T03:43:17;3.37;;;3.07;;
2944;SDS011;1482;51.398;7.128;2022-08-03T03:45:43;4.60;;;3.20;;
2944;SDS011;1482;51.398;7.128;2022-08-03T03:48:11;6.33;;;4.37;;
2944;SDS011;1482;51.398;7.128;2022-08-03T03:50:37;4.10;;;3.10;;
2944;SDS011;1482;51.398;7.128;2022-08-03T03:53:07;3.80;;;3.00;;
2944;SDS011;1482;51.398;7.128;2022-08-03T03:55:35;3.03;;;2.83;;
2944;SDS011;1482;51.398;7.128;2022-08-03T03:58:04;5.97;;;3.73;;
2944;SDS011;1482;51.398;7.128;2022-08-03T04:00:30;3.17;;;2.63;;
2944;SDS011;1482;51.398;7.128;2022-08-03T04:02:56;4.90;;;2.93;;
2944;SDS011;1482;51.398;7.128;2022-08-03T04:05:22;5.37;;;3.50;;
2944;SDS011;1482;51.398;7.128;2022-08-03T04:08:06;4.67;;;2.93;;
2944;SDS011;1482;51.398;7.128;2022-08-03T04:13:46;5.23;;;3.10;;
2944;SDS011;1482;51.398;7.128;2022-08-03T04:16:20;3.73;;;3.07;;
2944;SDS011;1482;51.398;7.128;2022-08-03T04:18:50;3.07;;;2.70;;
2944;SDS011;1482;51.398;7.128;2022-08-03T04:21:20;3.83;;;2.93;;
2944;SDS011;1482;51.398;7.128;2022-08-03T04:23:47;3.10;;;2.67;;
2944;SDS011;1482;51.398;7.128;2022-08-03T04:26:18;9.00;;;3.90;;
2944;SDS011;1482;51.398;7.128;2022-08-03T04:28:46;4.20;;;3.80;;
2944;SDS011;1482;51.398;7.128;2022-08-03T04:31:14;4.30;;;3.50;;
2944;SDS011;1482;51.398;7.128;2022-08-03T04:33:40;4.97;;;4.47;;
2944;SDS011;1482;51.398;7.128;2022-08-03T04:36:08;4.10;;;3.80;;
2944;SDS011;1482;51.398;7.128;2022-08-03T04:38:55;5.80;;;3.50;;
2944;SDS011;1482;51.398;7.128;2022-08-03T04:41:23;4.07;;;3.67;;
2944;SDS011;1482;51.398;7.128;2022-08-03T04:43:52;6.17;;;5.43;;
2944;SDS011;1482;51.398;7.128;2022-08-03T04:46:20;5.33;;;4.80;;
2944;SDS011;1482;51.398;7.128;2022-08-03T04:48:48;6.13;;;5.20;;
2944;SDS011;1482;51.398;7.128;2022-08-03T04:51:14;7.17;;;5.23;;
2944;SDS011;1482;51.398;7.128;2022-08-03T04:53:41;5.87;;;5.27;;
2944;SDS011;1482;51.398;7.128;2022-08-03T04:56:07;6.20;;;4.53;;
2944;SDS011;1482;51.398;7.128;2022-08-03T04:58:33;5.13;;;4.73;;
2944;SDS011;1482;51.398;7.128;2022-08-03T05:00:58;5.90;;;5.40;;
2944;SDS011;1482;51.398;7.128;2022-08-03T05:03:24;28.40;;;5.20;;
2944;SDS011;1482;51.398;7.128;2022-08-03T05:05:50;12.00;;;4.77;;
2944;SDS011;1482;51.398;7.128;2022-08-03T05:08:17;4.97;;;4.57;;
2944;SDS011;1482;51.398;7.128;2022-08-03T05:10:42;6.40;;;5.20;;
2944;SDS011;1482;51.398;7.128;2022-08-03T05:13:08;6.53;;;4.70;;
2944;SDS011;1482;51.398;7.128;2022-08-03T05:15:37;5.30;;;4.90;;
2944;SDS011;1482;51.398;7.128;2022-08-03T05:18:03;5.60;;;5.10;;
2944;SDS011;1482;51.398;7.128;2022-08-03T05:20:29;6.33;;;4.97;;
2944;SDS011;1482;51.398;7.128;2022-08-03T05:22:55;5.03;;;4.53;;
2944;SDS011;1482;51.398;7.128;2022-08-03T05:25:21;5.77;;;4.37;;
2944;SDS011;1482;51.398;7.128;2022-08-03T05:27:46;9.23;;;4.77;;
2944;SDS011;1482;51.398;7.128;2022-08-03T05:30:12;4.60;;;4.20;;
2944;SDS011;1482;51.398;7.128;2022-08-03T05:32:38;5.10;;;4.13;;
2944;SDS011;1482;51.398;7.128;2022-08-03T05:35:03;5.30;;;4.27;;
2944;SDS011;1482;51.398;7.128;2022-08-03T05:37:29;5.03;;;4.53;;
2944;SDS011;1482;51.398;7.128;2022-08-03T05:39:55;10.33;;;5.00;;
2944;SDS011;1482;51.398;7.128;2022-08-03T05:42:20;6.90;;;5.20;;
2944;SDS011;1482;51.398;7.128;2022-08-03T05:44:46;5.80;;;4.97;;
2944;SDS011;1482;51.398;7.128;2022-08-03T05:47:12;8.50;;;5.77;;
2944;SDS011;1482;51.398;7.128;2022-08-03T05:49:37;7.20;;;5.13;;
2944;SDS011;1482;51.398;7.128;2022-08-03T05:52:03;5.70;;;4.80;;
2944;SDS011;1482;51.398;7.128;2022-08-03T05:54:28;5.50;;;5.00;;
2944;SDS011;1482;51.398;7.128;2022-08-03T05:56:54;7.83;;;4.73;;
2944;SDS011;1482;51.398;7.128;2022-08-03T05:59:20;5.53;;;4.70;;
2944;SDS011;1482;51.398;7.128;2022-08-03T06:01:45;5.63;;;5.00;;
2944;SDS011;1482;51.398;7.128;2022-08-03T06:04:12;5.40;;;4.50;;
2944;SDS011;1482;51.398;7.128;2022-08-03T06:06:37;5.40;;;4.90;;
2944;SDS011;1482;51.398;7.128;2022-08-03T06:09:03;9.43;;;5.17;;
2944;SDS011;1482;51.398;7.128;2022-08-03T06:11:28;6.50;;;3.80;;
2944;SDS011;1482;51.398;7.128;2022-08-03T06:13:54;9.10;;;5.17;;
2944;SDS011;1482;51.398;7.128;2022-08-03T06:16:20;4.97;;;4.07;;
2944;SDS011;1482;51.398;7.128;2022-08-03T06:18:46;7.40;;;5.00;;
2944;SDS011;1482;51.398;7.128;2022-08-03T06:21:11;4.53;;;4.13;;
2944;SDS011;1482;51.398;7.128;2022-08-03T06:23:37;4.17;;;3.87;;
2944;SDS011;1482;51.398;7.128;2022-08-03T06:26:02;6.37;;;4.93;;
2944;SDS011;1482;51.398;7.128;2022-08-03T06:28:28;4.83;;;4.47;;
2944;SDS011;1482;51.398;7.128;2022-08-03T06:30:54;4.70;;;4.30;;
2944;SDS011;1482;51.398;7.128;2022-08-03T06:33:19;4.93;;;3.70;;
2944;SDS011;1482;51.398;7.128;2022-08-03T06:35:45;4.90;;;4.50;;
2944;SDS011;1482;51.398;7.128;2022-08-03T06:38:10;7.50;;;4.10;;
2944;SDS011;1482;51.398;7.128;2022-08-03T06:40:37;4.90;;;4.47;;
2944;SDS011;1482;51.398;7.128;2022-08-03T06:43:06;8.53;;;4.47;;
2944;SDS011;1482;51.398;7.128;2022-08-03T06:45:32;7.93;;;4.10;;
2944;SDS011;1482;51.398;7.128;2022-08-03T06:47:59;4.63;;;4.00;;
2944;SDS011;1482;51.398;7.128;2022-08-03T06:50:25;6.60;;;4.67;;
2944;SDS011;1482;51.398;7.128;2022-08-03T06:52:51;4.27;;;3.87;;
2944;SDS011;1482;51.398;7.128;2022-08-03T06:55:17;7.00;;;4.10;;
2944;SDS011;1482;51.398;7.128;2022-08-03T06:57:42;5.03;;;4.20;;
2944;SDS011;1482;51.398;7.128;2022-08-03T07:00:08;5.80;;;5.20;;
2944;SDS011;1482;51.398;7.128;2022-08-03T07:02:35;6.90;;;4.83;;
2944;SDS011;1482;51.398;7.128;2022-08-03T07:05:01;6.20;;;4.80;;
2944;SDS011;1482;51.398;7.128;2022-08-03T07:07:27;4.53;;;4.13;;
2944;SDS011;1482;51.398;7.128;2022-08-03T07:09:53;4.70;;;3.73;;
2944;SDS011;1482;51.398;7.128;2022-08-03T07:12:19;4.30;;;3.93;;
2944;SDS011;1482;51.398;7.128;2022-08-03T07:14:44;6.40;;;4.30;;
2944;SDS011;1482;51.398;7.128;2022-08-03T07:17:10;4.20;;;3.17;;
2944;SDS011;1482;51.398;7.128;2022-08-03T07:19:35;5.43;;;3.37;;
2944;SDS011;1482;51.398;7.128;2022-08-03T07:22:01;8.60;;;3.60;;
2944;SDS011;1482;51.398;7.128;2022-08-03T07:24:27;4.57;;;3.17;;
2944;SDS011;1482;51.398;7.128;2022-08-03T07:26:53;5.10;;;3.30;;
2944;SDS011;1482;51.398;7.128;2022-08-03T07:29:19;5.73;;;3.43;;
2944;SDS011;1482;51.398;7.128;2022-08-03T07:31:44;4.30;;;3.20;;
2944;SDS011;1482;51.398;7.128;2022-08-03T07:34:10;3.67;;;3.37;;
2944;SDS011;1482;51.398;7.128;2022-08-03T07:36:36;6.93;;;3.70;;
2944;SDS011;1482;51.398;7.128;2022-08-03T07:39:02;4.27;;;3.20;;
2944;SDS011;1482;51.398;7.128;2022-08-03T07:41:28;4.27;;;3.37;;
2944;SDS011;1482;51.398;7.128;2022-08-03T07:43:54;4.33;;;2.90;;
2944;SDS011;1482;51.398;7.128;2022-08-03T07:46:19;4.30;;;3.30;;
2944;SDS011;1482;51.398;7.128;2022-08-03T07:48:45;8.30;;;3.17;;
2944;SDS011;1482;51.398;7.128;2022-08-03T07:51:10;4.20;;;3.47;;
2944;SDS011;1482;51.398;7.128;2022-08-03T07:53:36;3.03;;;2.73;;
2944;SDS011;1482;51.398;7.128;2022-08-03T07:56:01;5.87;;;3.20;;
2944;SDS011;1482;51.398;7.128;2022-08-03T07:58:27;4.87;;;3.57;;
2944;SDS011;1482;51.398;7.128;2022-08-03T08:00:53;5.50;;;3.10;;
2944;SDS011;1482;51.398;7.128;2022-08-03T08:03:18;6.00;;;3.60;;
2944;SDS011;1482;51.398;7.128;2022-08-03T08:05:45;2.93;;;2.60;;
2944;SDS011;1482;51.398;7.128;2022-08-03T08:08:11;4.33;;;3.50;;
2944;SDS011;1482;51.398;7.128;2022-08-03T08:10:37;3.70;;;2.83;;
2944;SDS011;1482;51.398;7.128;2022-08-03T08:13:03;4.20;;;3.40;;
2944;SDS011;1482;51.398;7.128;2022-08-03T08:15:29;3.83;;;2.87;;
2944;SDS011;1482;51.398;7.128;2022-08-03T08:17:56;3.23;;;2.90;;
2944;SDS011;1482;51.398;7.128;2022-08-03T08:20:24;2.90;;;2.60;;
2944;SDS011;1482;51.398;7.128;2022-08-03T08:22:51;3.87;;;2.70;;
2944;SDS011;1482;51.398;7.128;2022-08-03T08:25:17;5.50;;;3.20;;
2944;SDS011;1482;51.398;7.128;2022-08-03T08:27:46;3.00;;;2.80;;
2944;SDS011;1482;51.398;7.128;2022-08-03T08:30:13;5.20;;;3.27;;
2944;SDS011;1482;51.398;7.128;2022-08-03T08:32:40;4.63;;;2.97;;
2944;SDS011;1482;51.398;7.128;2022-08-03T08:35:07;6.60;;;3.33;;
2944;SDS011;1482;51.398;7.128;2022-08-03T08:37:33;3.97;;;2.83;;
2944;SDS011;1482;51.398;7.128;2022-08-03T08:39:59;3.97;;;2.67;;
2944;SDS011;1482;51.398;7.128;2022-08-03T08:42:25;4.10;;;3.00;;
2944;SDS011;1482;51.398;7.128;2022-08-03T08:44:50;3.17;;;2.70;;
2944;SDS011;1482;51.398;7.128;2022-08-03T08:47:21;6.43;;;2.60;;
2944;SDS011;1482;51.398;7.128;2022-08-03T08:49:53;8.67;;;4.17;;
2944;SDS011;1482;51.398;7.128;2022-08-03T08:52:26;7.83;;;3.10;;
2944;SDS011;1482;51.398;7.128;2022-08-03T08:54:56;4.50;;;3.27;;
2944;SDS011;1482;51.398;7.128;2022-08-03T08:57:25;3.90;;;2.73;;
2944;SDS011;1482;51.398;7.128;2022-08-03T08:59:57;2.97;;;2.67;;
2944;SDS011;1482;51.398;7.128;2022-08-03T09:02:23;4.60;;;2.80;;
2944;SDS011;1482;51.398;7.128;2022-08-03T09:04:49;7.57;;;3.00;;
2944;SDS011;1482;51.398;7.128;2022-08-03T09:07:15;3.70;;;2.83;;
2944;SDS011;1482;51.398;7.128;2022-08-03T09:09:42;3.27;;;2.97;;
2944;SDS011;1482;51.398;7.128;2022-08-03T09:12:07;4.70;;;3.00;;
2944;SDS011;1482;51.398;7.128;2022-08-03T09:14:33;3.00;;;2.70;;
2944;SDS011;1482;51.398;7.128;2022-08-03T09:17:00;3.40;;;2.40;;
2944;SDS011;1482;51.398;7.128;2022-08-03T09:19:27;4.53;;;2.43;;
2944;SDS011;1482;51.398;7.128;2022-08-03T09:22:07;3.00;;;2.63;;
2944;SDS011;1482;51.398;7.128;2022-08-03T09:24:34;2.90;;;2.53;;
2944;SDS011;1482;51.398;7.128;2022-08-03T09:27:00;5.10;;;2.40;;
2944;SDS011;1482;51.398;7.128;2022-08-03T09:29:25;5.43;;;3.17;;
2944;SDS011;1482;51.398;7.128;2022-08-03T09:32:02;8.97;;;3.50;;
2944;SDS011;1482;51.398;7.128;2022-08-03T09:34:28;6.00;;;2.83;;
2944;SDS011;1482;51.398;7.128;2022-08-03T09:36:54;6.03;;;3.50;;
2944;SDS011;1482;51.398;7.128;2022-08-03T09:39:23;4.20;;;3.10;;
2944;SDS011;1482;51.398;7.128;2022-08-03T09:42:04;9.10;;;3.43;;
2944;SDS011;1482;51.398;7.128;2022-08-03T09:44:36;3.40;;;2.93;;
2944;SDS011;1482;51.398;7.128;2022-08-03T09:47:06;4.70;;;2.77;;
2944;SDS011;1482;51.398;7.128;2022-08-03T09:49:32;5.53;;;2.77;;
2944;SDS011;1482;51.398;7.128;2022-08-03T09:52:01;4.33;;;3.10;;
2944;SDS011;1482;51.398;7.128;2022-08-03T09:54:37;4.10;;;2.00;;
2944;SDS011;1482;51.398;7.128;2022-08-03T09:57:03;4.83;;;2.80;;
2944;SDS011;1482;51.398;7.128;2022-08-03T09:59:29;3.13;;;2.93;;
2944;SDS011;1482;51.398;7.128;2022-08-03T10:01:56;3.33;;;2.77;;
2944;SDS011;1482;51.398;7.128;2022-08-03T10:04:23;7.60;;;2.60;;
2944;SDS011;1482;51.398;7.128;2022-08-03T10:09:29;3.10;;;2.00;;
2944;SDS011;1482;51.398;7.128;2022-08-03T10:11:55;2.47;;;2.23;;
2944;SDS011;1482;51.398;7.128;2022-08-03T10:14:21;6.80;;;2.47;;
2944;SDS011;1482;51.398;7.128;2022-08-03T10:16:47;7.33;;;2.60;;
2944;SDS011;1482;51.398;7.128;2022-08-03T10:19:13;8.90;;;2.70;;
2944;SDS011;1482;51.398;7.128;2022-08-03T10:21:41;4.37;;;2.90;;
2944;SDS011;1482;51.398;7.128;2022-08-03T10:24:13;7.10;;;3.27;;
2944;SDS011;1482;51.398;7.128;2022-08-03T10:26:41;3.27;;;2.43;;
2944;SDS011;1482;51.398;7.128;2022-08-03T10:29:11;7.93;;;3.17;;
2944;SDS011;1482;51.398;7.128;2022-08-03T10:31:39;4.23;;;2.97;;
2944;SDS011;1482;51.398;7.128;2022-08-03T10:34:18;6.10;;;2.97;;
2944;SDS011;1482;51.398;7.128;2022-08-03T10:36:48;2.73;;;2.50;;
2944;SDS011;1482;51.398;7.128;2022-08-03T10:39:17;4.67;;;2.53;;
2944;SDS011;1482;51.398;7.128;2022-08-03T10:41:45;8.00;;;2.73;;
2944;SDS011;1482;51.398;7.128;2022-08-03T10:44:13;7.27;;;3.10;;
2944;SDS011;1482;51.398;7.128;2022-08-03T10:46:42;3.00;;;2.30;;
2944;SDS011;1482;51.398;7.128;2022-08-03T10:49:11;3.87;;;2.63;;
2944;SDS011;1482;51.398;7.128;2022-08-03T10:51:41;3.20;;;2.03;;
2944;SDS011;1482;51.398;7.128;2022-08-03T10:56:58;5.20;;;2.37;;
2944;SDS011;1482;51.398;7.128;2022-08-03T11:02:14;2.80;;;2.20;;
2944;SDS011;1482;51.398;7.128;2022-08-03T11:04:40;3.93;;;2.60;;
2944;SDS011;1482;51.398;7.128;2022-08-03T11:09:40;5.73;;;2.40;;
2944;SDS011;1482;51.398;7.128;2022-08-03T11:12:20;6.83;;;3.00;;
2944;SDS011;1482;51.398;7.128;2022-08-03T11:14:49;17.70;;;4.47;;
2944;SDS011;1482;51.398;7.128;2022-08-03T11:17:15;12.03;;;2.73;;
2944;SDS011;1482;51.398;7.128;2022-08-03T11:19:43;3.57;;;2.10;;
2944;SDS011;1482;51.398;7.128;2022-08-03T11:22:09;3.97;;;2.07;;
2944;SDS011;1482;51.398;7.128;2022-08-03T11:29:38;2.53;;;2.13;;
2944;SDS011;1482;51.398;7.128;2022-08-03T11:46:00;6.40;;;2.60;;
2944;SDS011;1482;51.398;7.128;2022-08-03T11:48:31;3.97;;;2.73;;
2944;SDS011;1482;51.398;7.128;2022-08-03T11:50:58;3.30;;;2.10;;
2944;SDS011;1482;51.398;7.128;2022-08-03T11:53:28;2.80;;;2.47;;
2944;SDS011;1482;51.398;7.128;2022-08-03T11:55:56;4.97;;;2.57;;
2944;SDS011;1482;51.398;7.128;2022-08-03T11:58:23;1.90;;;1.50;;
2944;SDS011;1482;51.398;7.128;2022-08-03T12:00:49;5.10;;;2.53;;
2944;SDS011;1482;51.398;7.128;2022-08-03T12:03:15;2.70;;;2.50;;
2944;SDS011;1482;51.398;7.128;2022-08-03T12:05:46;2.80;;;1.80;;
2944;SDS011;1482;51.398;7.128;2022-08-03T12:08:13;7.23;;;2.70;;
2944;SDS011;1482;51.398;7.128;2022-08-03T12:10:50;9.10;;;2.03;;
2944;SDS011;1482;51.398;7.128;2022-08-03T12:13:16;4.47;;;1.90;;
2944;SDS011;1482;51.398;7.128;2022-08-03T12:15:42;4.00;;;2.03;;
2944;SDS011;1482;51.398;7.128;2022-08-03T12:18:14;4.20;;;1.87;;
2944;SDS011;1482;51.398;7.128;2022-08-03T12:20:42;4.67;;;2.50;;
2944;SDS011;1482;51.398;7.128;2022-08-03T12:23:08;6.60;;;3.10;;
2944;SDS011;1482;51.398;7.128;2022-08-03T12:25:34;2.20;;;2.00;;
2944;SDS011;1482;51.398;7.128;2022-08-03T12:28:08;2.90;;;1.90;;
2944;SDS011;1482;51.398;7.128;2022-08-03T12:30:37;4.17;;;2.07;;
2944;SDS011;1482;51.398;7.128;2022-08-03T12:35:39;3.13;;;2.07;;
2944;SDS011;1482;51.398;7.128;2022-08-03T12:38:05;7.63;;;2.27;;
2944;SDS011;1482;51.398;7.128;2022-08-03T12:40:31;4.57;;;2.43;;
2944;SDS011;1482;51.398;7.128;2022-08-03T12:42:56;4.97;;;2.53;;
2944;SDS011;1482;51.398;7.128;2022-08-03T12:45:26;4.90;;;1.90;;
2944;SDS011;1482;51.398;7.128;2022-08-03T12:50:37;5.97;;;2.13;;
2944;SDS011;1482;51.398;7.128;2022-08-03T12:53:05;4.43;;;2.67;;
2944;SDS011;1482;51.398;7.128;2022-08-03T12:55:32;3.10;;;1.90;;
2944;SDS011;1482;51.398;7.128;2022-08-03T12:58:02;4.00;;;2.20;;
2944;SDS011;1482;51.398;7.128;2022-08-03T13:00:29;5.13;;;2.23;;
2944;SDS011;1482;51.398;7.128;2022-08-03T13:03:05;4.60;;;1.90;;
2944;SDS011;1482;51.398;7.128;2022-08-03T13:05:44;3.57;;;2.27;;
2944;SDS011;1482;51.398;7.128;2022-08-03T13:08:17;4.23;;;1.77;;
2944;SDS011;1482;51.398;7.128;2022-08-03T13:10:47;2.23;;;1.90;;
2944;SDS011;1482;51.398;7.128;2022-08-03T13:13:13;7.47;;;2.47;;
2944;SDS011;1482;51.398;7.128;2022-08-03T13:15:38;2.70;;;1.77;;
2944;SDS011;1482;51.398;7.128;2022-08-03T13:18:04;3.07;;;2.20;;
2944;SDS011;1482;51.398;7.128;2022-08-03T13:20:30;5.90;;;2.70;;
2944;SDS011;1482;51.398;7.128;2022-08-03T13:22:55;3.03;;;1.80;;
2944;SDS011;1482;51.398;7.128;2022-08-03T13:25:21;2.50;;;2.30;;
2944;SDS011;1482;51.398;7.128;2022-08-03T13:27:47;4.43;;;2.90;;
2944;SDS011;1482;51.398;7.128;2022-08-03T13:30:13;1.77;;;1.67;;
2944;SDS011;1482;51.398;7.128;2022-08-03T13:32:40;4.47;;;2.23;;
2944;SDS011;1482;51.398;7.128;2022-08-03T13:35:06;4.37;;;2.47;;
2944;SDS011;1482;51.398;7.128;2022-08-03T13:37:33;2.53;;;1.80;;
2944;SDS011;1482;51.398;7.128;2022-08-03T13:40:00;4.67;;;2.43;;
2944;SDS011;1482;51.398;7.128;2022-08-03T13:42:28;3.93;;;2.40;;
2944;SDS011;1482;51.398;7.128;2022-08-03T13:44:55;3.20;;;2.10;;
2944;SDS011;1482;51.398;7.128;2022-08-03T13:47:21;4.33;;;2.10;;
2944;SDS011;1482;51.398;7.128;2022-08-03T13:49:46;2.40;;;1.80;;
2944;SDS011;1482;51.398;7.128;2022-08-03T13:52:14;2.37;;;1.70;;
2944;SDS011;1482;51.398;7.128;2022-08-03T13:54:40;5.50;;;2.20;;
2944;SDS011;1482;51.398;7.128;2022-08-03T13:57:05;2.07;;;1.87;;
2944;SDS011;1482;51.398;7.128;2022-08-03T13:59:31;3.00;;;2.20;;
2944;SDS011;1482;51.398;7.128;2022-08-03T14:01:57;4.80;;;2.33;;
2944;SDS011;1482;51.398;7.128;2022-08-03T14:04:22;3.17;;;2.23;;
2944;SDS011;1482;51.398;7.128;2022-08-03T14:06:48;2.60;;;1.97;;
2944;SDS011;1482;51.398;7.128;2022-08-03T14:09:13;3.20;;;2.00;;
2944;SDS011;1482;51.398;7.128;2022-08-03T14:11:40;4.30;;;2.27;;
2944;SDS011;1482;51.398;7.128;2022-08-03T14:14:06;2.43;;;1.70;;
2944;SDS011;1482;51.398;7.128;2022-08-03T14:16:32;3.30;;;1.93;;
2944;SDS011;1482;51.398;7.128;2022-08-03T14:18:57;3.60;;;1.80;;
2944;SDS011;1482;51.398;7.128;2022-08-03T14:21:23;3.40;;;2.27;;
2944;SDS011;1482;51.398;7.128;2022-08-03T14:23:49;4.83;;;1.90;;
2944;SDS011;1482;51.398;7.128;2022-08-03T14:26:14;6.87;;;2.43;;
2944;SDS011;1482;51.398;7.128;2022-08-03T14:28:42;4.17;;;2.20;;
2944;SDS011;1482;51.398;7.128;2022-08-03T14:31:07;7.27;;;2.97;;
2944;SDS011;1482;51.398;7.128;2022-08-03T14:33:33;2.90;;;1.70;;
2944;SDS011;1482;51.398;7.128;2022-08-03T14:35:59;3.77;;;2.30;;
2944;SDS011;1482;51.398;7.128;2022-08-03T14:38:24;6.30;;;2.33;;
2944;SDS011;1482;51.398;7.128;2022-08-03T14:40:50;5.57;;;2.03;;
2944;SDS011;1482;51.398;7.128;2022-08-03T14:43:17;3.97;;;1.80;;
2944;SDS011;1482;51.398;7.128;2022-08-03T14:45:45;3.27;;;2.10;;
2944;SDS011;1482;51.398;7.128;2022-08-03T14:48:11;7.87;;;2.00;;
2944;SDS011;1482;51.398;7.128;2022-08-03T14:50:37;2.60;;;2.07;;
2944;SDS011;1482;51.398;7.128;2022-08-03T14:53:03;2.97;;;2.57;;
2944;SDS011;1482;51.398;7.128;2022-08-03T14:55:29;2.27;;;2.00;;
2944;SDS011;1482;51.398;7.128;2022-08-03T14:57:54;1.97;;;1.77;;
2944;SDS011;1482;51.398;7.128;2022-08-03T15:00:20;4.63;;;2.40;;
2944;SDS011;1482;51.398;7.128;2022-08-03T15:02:45;3.67;;;2.20;;
2944;SDS011;1482;51.398;7.128;2022-08-03T15:05:11;3.57;;;2.07;;
2944;SDS011;1482;51.398;7.128;2022-08-03T15:07:39;3.33;;;2.00;;
2944;SDS011;1482;51.398;7.128;2022-08-03T15:10:04;3.60;;;1.60;;
2944;SDS011;1482;51.398;7.128;2022-08-03T15:12:30;6.40;;;2.00;;
2944;SDS011;1482;51.398;7.128;2022-08-03T15:14:56;2.97;;;2.50;;
2944;SDS011;1482;51.398;7.128;2022-08-03T15:17:22;2.37;;;1.73;;
2944;SDS011;1482;51.398;7.128;2022-08-03T15:19:47;3.80;;;1.80;;
2944;SDS011;1482;51.398;7.128;2022-08-03T15:22:13;3.47;;;1.83;;
2944;SDS011;1482;51.398;7.128;2022-08-03T15:24:41;2.80;;;1.90;;
2944;SDS011;1482;51.398;7.128;2022-08-03T15:27:06;4.33;;;1.83;;
2944;SDS011;1482;51.398;7.128;2022-08-03T15:29:32;2.67;;;1.83;;
2944;SDS011;1482;51.398;7.128;2022-08-03T15:31:57;6.03;;;2.13;;
2944;SDS011;1482;51.398;7.128;2022-08-03T15:34:23;7.33;;;2.27;;
2944;SDS011;1482;51.398;7.128;2022-08-03T15:36:48;2.50;;;1.80;;
2944;SDS011;1482;51.398;7.128;2022-08-03T15:39:14;8.70;;;2.30;;
2944;SDS011;1482;51.398;7.128;2022-08-03T15:41:39;2.07;;;1.70;;
2944;SDS011;1482;51.398;7.128;2022-08-03T15:44:05;3.33;;;1.70;;
2944;SDS011;1482;51.398;7.128;2022-08-03T15:46:31;2.30;;;1.57;;
2944;SDS011;1482;51.398;7.128;2022-08-03T15:48:56;3.00;;;2.10;;
2944;SDS011;1482;51.398;7.128;2022-08-03T15:51:22;1.90;;;1.80;;
2944;SDS011;1482;51.398;7.128;2022-08-03T15:53:47;2.93;;;1.80;;
2944;SDS011;1482;51.398;7.128;2022-08-03T15:56:13;3.10;;;2.07;;
2944;SDS011;1482;51.398;7.128;2022-08-03T15:58:39;7.53;;;1.70;;
2944;SDS011;1482;51.398;7.128;2022-08-03T16:01:05;4.73;;;1.90;;
2944;SDS011;1482;51.398;7.128;2022-08-03T16:03:31;6.20;;;2.00;;
2944;SDS011;1482;51.398;7.128;2022-08-03T16:05:59;3.57;;;1.87;;
2944;SDS011;1482;51.398;7.128;2022-08-03T16:08:29;7.10;;;1.70;;